GMTA

Cherif Al Idrissi Airport

Al Hoceima, Morocco
METAR GMTA 211500Z 06010KT 8000 SCT013 SCT023 BKN100 21/16 Q1012 NOSIG
Observed Flight Rules
Apr-21 @ 15:00 UTC (41 minutes ago) Marginal Visual Flight Rules
Wind Visibility Clouds
60° at 10 knots 7,998 meters
  • Scattered at 1,300' AGL
  • Scattered at 2,300' AGL
  • Broken at 10,000' AGL
Temperatures Readings
Current 21°C / 70°F
Dewpoint 16°C / 61°F
Humidity 73%
Altimeter 29.88" Hg
Pressure 1012 hPa
Elevation 14
METAR GMTA 211500Z 06010KT 8000 SCT013 SCT023 BKN100 21/16 Q1012 NOSIG
Observed Flight Rules
Apr-21 @ 15:00 UTC
(41 minutes ago)
MVFR
Wind Visibility
60° at 10 knots 7,998 meters
Clouds
  • Scattered at 1,300' AGL
  • Scattered at 2,300' AGL
  • Broken at 10,000' AGL
Temperature Dewpoint
21°C / 70°F 16°C / 61°F
Humidity Altimeter Pressure
73% 29.88" Hg 1012 hPa